createdAt,value
2022-08-23T06:02:47.805Z,19.89
2022-08-23T06:07:00.222Z,19.89
2022-08-23T06:11:21.759Z,20.03
2022-08-23T06:15:34.079Z,20.13
2022-08-23T06:19:33.843Z,20.12
2022-08-23T06:23:26.396Z,20.14
2022-08-23T06:27:19.031Z,20.05
2022-08-23T06:31:11.611Z,19.89
2022-08-23T06:35:33.289Z,19.99
2022-08-23T06:39:18.481Z,20.07
2022-08-23T06:43:11.457Z,20.14
2022-08-23T06:47:06.178Z,20.17
2022-08-23T06:50:58.813Z,20.10
2022-08-23T06:54:52.586Z,20.28
2022-08-23T06:58:45.825Z,20.38
2022-08-23T07:02:38.724Z,20.23
2022-08-23T07:06:32.110Z,20.43
2022-08-23T07:10:24.542Z,20.56
2022-08-23T07:14:19.689Z,20.68
2022-08-23T07:18:13.738Z,20.62
2022-08-23T07:22:06.764Z,20.99
2022-08-23T07:26:01.322Z,20.96
2022-08-23T07:29:53.846Z,21.06
2022-08-23T07:33:48.284Z,20.88
2022-08-23T07:42:02.328Z,21.09
2022-08-23T07:46:14.987Z,21.47
2022-08-23T07:50:07.890Z,21.50
2022-08-23T07:54:06.447Z,21.41
2022-08-23T07:57:58.983Z,21.43
2022-08-23T08:01:51.647Z,21.57
2022-08-23T08:05:44.086Z,21.57
2022-08-23T08:09:36.646Z,21.58
2022-08-23T08:13:29.653Z,21.30
2022-08-23T08:17:25.500Z,21.53
2022-08-23T08:21:20.156Z,21.64
2022-08-23T08:25:13.031Z,21.98
2022-08-23T08:29:06.636Z,22.47
2022-08-23T08:32:59.325Z,22.70
2022-08-23T08:36:55.147Z,22.88
2022-08-23T08:40:53.948Z,23.09
2022-08-23T08:45:00.707Z,22.98
2022-08-23T08:48:59.100Z,23.49
2022-08-23T08:53:02.258Z,23.40
2022-08-23T08:56:58.644Z,23.16
2022-08-23T09:00:55.637Z,22.96
2022-08-23T09:04:49.626Z,22.72
2022-08-23T09:09:18.294Z,22.81
2022-08-23T09:13:28.979Z,22.88
2022-08-23T09:17:36.884Z,22.90
2022-08-23T09:21:40.068Z,22.78
2022-08-23T09:25:32.919Z,22.87
2022-08-23T09:29:26.913Z,22.75
2022-08-23T09:33:26.177Z,22.81
2022-08-23T09:37:19.016Z,22.94
2022-08-23T09:41:20.335Z,23.05
2022-08-23T09:45:35.392Z,23.19
2022-08-23T09:49:30.263Z,23.09
2022-08-23T09:53:30.002Z,23.43
2022-08-23T09:57:27.887Z,23.75
2022-08-23T10:01:39.285Z,23.57
2022-08-23T10:05:41.306Z,23.33
2022-08-23T10:09:34.069Z,23.40
2022-08-23T10:13:27.100Z,23.40
2022-08-23T10:17:30.674Z,23.70
2022-08-23T10:21:37.846Z,23.36
2022-08-23T10:25:40.287Z,23.34
2022-08-23T10:29:41.687Z,23.69
2022-08-23T10:33:36.915Z,23.91
2022-08-23T10:37:41.889Z,24.12
2022-08-23T10:42:13.764Z,24.15
2022-08-23T10:46:08.175Z,24.35
2022-08-23T10:50:06.061Z,24.51
2022-08-23T10:54:00.910Z,24.48
2022-08-23T10:57:53.913Z,24.79
2022-08-23T11:01:50.042Z,24.67
2022-08-23T11:05:43.379Z,24.74
2022-08-23T11:09:47.037Z,24.84
2022-08-23T11:13:53.154Z,24.95
2022-08-23T11:17:56.176Z,25.07
2022-08-23T11:21:49.157Z,25.19
2022-08-23T11:25:44.696Z,25.41
2022-08-23T11:29:38.597Z,25.48
2022-08-23T11:33:48.202Z,25.18
2022-08-23T11:37:57.705Z,25.07
2022-08-23T11:41:54.632Z,25.15
2022-08-23T11:45:48.142Z,25.37
2022-08-23T11:49:56.898Z,25.24
2022-08-23T11:53:49.342Z,25.04
2022-08-23T11:58:05.391Z,25.29
2022-08-23T12:01:57.888Z,25.14
2022-08-23T12:05:54.189Z,25.15
2022-08-23T12:09:52.268Z,25.14
2022-08-23T12:14:02.001Z,24.88
2022-08-23T12:17:57.066Z,24.80
2022-08-23T12:21:51.968Z,24.83
2022-08-23T12:25:44.517Z,25.03
2022-08-23T12:29:46.804Z,24.83
2022-08-23T12:33:51.472Z,25.11
2022-08-23T12:37:55.247Z,25.35
2022-08-23T12:41:56.402Z,25.35
2022-08-23T12:45:55.957Z,25.22
2022-08-23T12:49:59.134Z,24.80
2022-08-23T12:53:52.421Z,24.84
2022-08-23T12:57:58.218Z,24.84
2022-08-23T13:01:50.828Z,24.90
2022-08-23T13:05:48.082Z,25.14
2022-08-23T13:09:45.456Z,25.07
2022-08-23T13:13:47.303Z,25.12
2022-08-23T13:17:41.076Z,25.06
2022-08-23T13:21:39.782Z,24.90
2022-08-23T13:25:38.787Z,25.18
2022-08-23T13:29:31.138Z,25.27
2022-08-23T13:33:23.641Z,25.14
2022-08-23T13:37:25.498Z,25.17
2022-08-23T13:41:30.469Z,25.04
2022-08-23T13:45:34.924Z,24.90
2022-08-23T13:49:29.041Z,24.79
2022-08-23T13:53:22.428Z,24.95
2022-08-23T13:57:17.182Z,24.83
2022-08-23T14:01:19.313Z,24.88
2022-08-23T14:05:12.334Z,24.79
2022-08-23T14:09:06.641Z,24.53
2022-08-23T14:13:02.282Z,24.62
2022-08-23T14:16:58.687Z,24.67
2022-08-23T14:20:54.671Z,24.51
2022-08-23T14:24:47.269Z,24.67
2022-08-23T14:28:44.285Z,24.57
2022-08-23T14:32:38.847Z,24.60
2022-08-23T14:36:31.334Z,24.79
2022-08-23T14:40:23.744Z,24.93
2022-08-23T14:44:16.832Z,24.69
2022-08-23T14:48:09.611Z,24.72
2022-08-23T14:52:02.738Z,24.73
2022-08-23T14:56:18.642Z,24.77
2022-08-23T15:00:13.813Z,24.77
2022-08-23T15:04:06.494Z,24.57
2022-08-23T15:07:58.904Z,24.56
2022-08-23T15:16:07.392Z,24.46
2022-08-23T15:19:59.896Z,24.43
2022-08-23T15:23:52.707Z,24.49
2022-08-23T15:27:46.648Z,24.33
2022-08-23T15:31:39.100Z,24.40
2022-08-23T15:35:42.500Z,24.55
2022-08-23T15:39:36.157Z,24.51
2022-08-23T15:43:34.250Z,24.53
2022-08-23T15:47:33.377Z,24.33
2022-08-23T15:51:25.978Z,24.53
2022-08-23T15:55:19.233Z,24.37
2022-08-23T15:59:14.198Z,24.49
2022-08-23T16:03:18.748Z,24.55
2022-08-23T16:07:15.667Z,24.36
2022-08-23T16:11:12.350Z,24.24
2022-08-23T16:15:05.661Z,24.30
2022-08-23T16:19:00.006Z,24.26
2022-08-23T16:22:52.360Z,24.00
2022-08-23T16:26:45.861Z,23.96
2022-08-23T16:30:38.330Z,23.96
2022-08-23T16:34:30.915Z,24.02
2022-08-23T16:38:23.351Z,23.98
2022-08-23T16:42:15.849Z,24.00
2022-08-23T16:46:09.421Z,24.01
2022-08-23T16:50:01.916Z,23.85
2022-08-23T16:54:02.337Z,23.69
2022-08-23T16:57:55.799Z,23.77
2022-08-23T17:01:56.218Z,23.47
2022-08-23T17:05:48.892Z,23.46
2022-08-23T17:09:42.207Z,23.52
2022-08-23T17:13:34.661Z,23.64
2022-08-23T17:17:27.191Z,23.49
2022-08-23T17:21:19.582Z,23.39
2022-08-23T17:25:12.546Z,23.29
2022-08-23T17:29:05.254Z,23.15
2022-08-23T17:32:58.268Z,23.15
2022-08-23T17:36:54.514Z,23.09
2022-08-23T17:40:47.441Z,23.01
2022-08-23T17:44:40.477Z,22.79
2022-08-23T17:48:33.146Z,22.78
2022-08-23T17:52:26.523Z,22.68
2022-08-23T17:56:19.010Z,22.65
2022-08-23T18:00:15.105Z,22.72
2022-08-23T18:04:07.668Z,22.67
2022-08-23T18:08:01.121Z,22.35
2022-08-23T18:11:53.837Z,22.53
2022-08-23T18:15:46.447Z,22.40
2022-08-23T18:19:39.097Z,22.37
2022-08-23T18:23:31.561Z,22.37
2022-08-23T18:27:42.792Z,22.33
2022-08-23T18:31:35.532Z,22.24
2022-08-23T18:35:31.112Z,21.91
2022-08-23T18:39:31.406Z,21.82
2022-08-23T19:55:22.524Z,21.12
